Galaxy, South Carolina
Current Conditions -  °F | °C
As of 5:53 PM on Saturday 22 Nov 2014 (Local Time) from KCUB Reporting Station
Broken Clouds Broken Clouds  
Wind Chill: 53°   Ceiling: 6000
Heat Index: 53°   Visibility: 10mi
Dew Point: 31°   Wind: 0mph
Humidity: 43%   Direction: NA
Pressure: 30.36"   Gusts: NA
Location:  33.9488°N, 80.9462°W
Report Text: KCUB 222253Z AUTO 00000KT 10SM BKN060 12/M01 A3036 RMK AO2 SLP283 T01171006
Loading
Personal Weather Stations






























Interactive Weather Map New forecast layout! Learn more

10-Day Weather Forecast

Advertisements
Track Severe Weather on mobile